Terminal Aerodrome Forecast
Issued by NWS Charleston, WV

Current Version | Previous Version | Text Only | Print | Product List | Glossary Off
Versions: 1 2 3 4 5 6 7 8 9 10 11 12 13 14 15 16 17 18 19 20 21 22 23

000
FTUS41 KRLX 221329 AAA
TAFEKN
TAF AMD
KEKN 221329Z 2213/2312 00000KT 5SM BR BKN002
      TEMPO 2213/2214 4SM BR
     FM221400 00000KT 5SM BR BKN250
      TEMPO 2214/2215 6SM BR
     FM221500 04003KT P6SM FEW050 BKN250
     FM230000 00000KT P6SM SKC
     FM230500 00000KT 4SM BR SKC
     FM230800 00000KT 1/4SM FG VV001=

USA.gov is the U.S. government's official web portal to all federal, state and local government web resources and services.